Time;durP1;ratioP1;P1;durP2;ratioP2;P2;SDS_P1;SDS_P2;PMS_P1;PMS_P2;Temp;Humidity;BMP_temperature;BMP_pressure;BME280_temperature;BME280_humidity;BME280_pressure;Samples;Min_cycle;Max_cycle;Signal;HPM_P1;HPM_P2
2023/10/06 00:01:44;;;;;;;6.18;1.50;;;9.30;99.90;;;;;;5074870;28;20730;-61
2023/10/06 00:04:15;;;;;;;1.70;1.60;;;9.30;99.90;;;;;;5074810;28;20202;-61
2023/10/06 00:06:42;;;;;;;5.35;0.90;;;9.30;99.90;;;;;;5074349;28;20682;-61
2023/10/06 00:09:09;;;;;;;1.35;1.25;;;9.30;99.90;;;;;;5074685;28;20622;-61
2023/10/06 00:11:40;;;;;;;1.17;1.10;;;9.20;99.90;;;;;;5074794;28;20181;-61
2023/10/06 00:14:07;;;;;;;1.15;0.98;;;9.10;99.90;;;;;;5074712;28;20199;-61
2023/10/06 00:16:41;;;;;;;3.70;0.95;;;9.10;99.90;;;;;;5074357;28;20259;-61
2023/10/06 00:19:42;;;;;;;1.90;1.40;;;9.10;99.90;;;;;;5074472;28;20280;-61
2023/10/06 00:24:47;;;;;;;2.90;2.25;;;9.20;99.90;;;;;;5074637;28;20170;-61
2023/10/06 00:27:14;;;;;;;0.40;0.40;;;9.30;99.90;;;;;;5074239;28;20224;-61
2023/10/06 00:29:44;;;;;;;0.90;0.90;;;9.40;99.90;;;;;;5074464;28;20250;-61
2023/10/06 00:32:21;;;;;;;1.98;1.77;;;9.40;99.90;;;;;;5074177;28;20177;-61
2023/10/06 00:35:11;;;;;;;1.55;1.45;;;9.30;99.90;;;;;;5074260;28;20165;-61
2023/10/06 00:37:42;;;;;;;1.70;1.60;;;9.20;99.90;;;;;;5073948;28;20212;-61
2023/10/06 00:40:10;;;;;;;0.60;0.60;;;9.00;99.90;;;;;;5074101;28;20205;-61
2023/10/06 00:42:37;;;;;;;4.93;1.60;;;9.00;99.90;;;;;;5074068;28;20177;-61
2023/10/06 00:45:07;;;;;;;1.85;0.90;;;8.90;99.90;;;;;;5073977;28;20227;-61
2023/10/06 00:47:38;;;;;;;2.63;1.58;;;8.90;99.90;;;;;;5073827;28;20567;-61
2023/10/06 00:50:10;;;;;;;2.70;1.13;;;9.00;99.90;;;;;;5074069;28;20876;-61
2023/10/06 00:52:39;;;;;;;1.30;1.20;;;9.10;99.90;;;;;;5074334;28;20264;-61
2023/10/06 00:55:09;;;;;;;0.88;0.85;;;9.10;99.90;;;;;;5073735;28;20185;-61
2023/10/06 00:57:35;;;;;;;1.67;1.30;;;9.10;99.90;;;;;;5073584;28;20193;-61
2023/10/06 01:00:01;;;;;;;5.45;2.97;;;9.10;99.90;;;;;;5073774;28;20570;-61
2023/10/06 01:02:26;;;;;;;2.40;0.87;;;9.00;99.90;;;;;;5073882;28;20260;-61
2023/10/06 01:04:52;;;;;;;1.10;1.10;;;9.10;99.90;;;;;;5073771;28;20575;-61
2023/10/06 01:07:18;;;;;;;1.38;1.30;;;9.00;99.90;;;;;;5073274;28;20203;-61
2023/10/06 01:09:56;;;;;;;1.43;1.10;;;9.00;99.90;;;;;;5073520;28;20181;-61
2023/10/06 01:12:24;;;;;;;1.48;1.38;;;9.10;99.90;;;;;;5073605;28;20936;-61
2023/10/06 01:14:51;;;;;;;1.77;0.82;;;9.20;99.90;;;;;;5073527;28;20678;-61
2023/10/06 01:17:18;;;;;;;3.22;1.80;;;9.10;99.90;;;;;;5073252;28;20249;-61
2023/10/06 01:19:47;;;;;;;0.65;0.65;;;9.00;99.90;;;;;;5073518;28;20207;-61
2023/10/06 01:22:30;;;;;;;1.65;1.02;;;8.90;99.90;;;;;;5073421;28;20673;-61
2023/10/06 01:24:58;;;;;;;1.27;1.10;;;8.80;99.90;;;;;;5073409;28;20252;-60
2023/10/06 01:27:26;;;;;;;2.35;1.10;;;8.90;99.90;;;;;;5083080;28;20211;-61
2023/10/06 01:32:46;;;;;;;0.73;0.68;;;8.90;99.90;;;;;;5093730;28;20229;-61
2023/10/06 01:35:13;;;;;;;0.82;0.75;;;8.90;99.90;;;;;;5093592;28;20318;-61
2023/10/06 01:37:47;;;;;;;3.22;1.13;;;8.90;99.90;;;;;;5093085;28;20459;-61
2023/10/06 01:42:52;;;;;;;1.38;0.60;;;8.90;99.90;;;;;;5093288;28;20187;-61
2023/10/06 01:45:21;;;;;;;1.25;1.15;;;8.80;99.90;;;;;;5093234;28;20565;-61
2023/10/06 01:48:14;;;;;;;1.52;1.17;;;8.80;99.90;;;;;;5092742;28;20699;-60
2023/10/06 01:50:41;;;;;;;0.70;0.50;;;8.90;99.90;;;;;;5093143;28;20169;-61
2023/10/06 01:53:11;;;;;;;0.77;0.77;;;8.90;99.90;;;;;;5093006;28;20521;-61
2023/10/06 01:55:39;;;;;;;0.75;0.75;;;8.90;99.90;;;;;;5092795;28;20658;-61
2023/10/06 01:58:07;;;;;;;0.70;0.70;;;8.90;99.90;;;;;;5092723;28;20613;-61
2023/10/06 02:00:34;;;;;;;0.90;0.90;;;8.90;99.90;;;;;;5092779;28;20287;-61
2023/10/06 02:03:01;;;;;;;0.93;0.93;;;8.90;99.90;;;;;;5092946;28;20180;-61
2023/10/06 02:05:27;;;;;;;0.70;0.70;;;8.80;99.90;;;;;;5092763;28;20205;-61
2023/10/06 02:08:00;;;;;;;1.73;1.63;;;8.80;99.90;;;;;;5092348;28;20184;-61
2023/10/06 02:10:32;;;;;;;2.00;1.45;;;8.70;99.90;;;;;;5092458;28;20290;-61
2023/10/06 02:12:58;;;;;;;1.10;1.10;;;8.70;99.90;;;;;;5092819;28;20188;-61
2023/10/06 02:15:24;;;;;;;7.45;1.98;;;8.70;99.90;;;;;;5092517;28;20189;-61
2023/10/06 02:17:50;;;;;;;11.53;1.87;;;8.70;99.90;;;;;;5074095;28;20233;-61
2023/10/06 02:22:57;;;;;;;1.60;1.50;;;8.70;99.90;;;;;;5092801;28;20805;-61
2023/10/06 02:25:25;;;;;;;2.20;0.73;;;8.70;99.90;;;;;;5092410;28;20592;-60
2023/10/06 02:27:53;;;;;;;1.83;1.50;;;8.80;99.90;;;;;;5144577;22;20214;-61
2023/10/06 02:30:44;;;;;;;0.68;0.68;;;8.80;99.90;;;;;;5049874;28;20224;-61
2023/10/06 02:33:11;;;;;;;0.60;0.60;;;8.90;99.90;;;;;;5052441;28;20663;-61
2023/10/06 02:35:45;;;;;;;1.20;1.10;;;8.90;99.90;;;;;;5052173;28;20656;-61
2023/10/06 02:38:11;;;;;;;0.60;0.60;;;8.80;99.90;;;;;;5050737;28;20205;-59
2023/10/06 02:40:47;;;;;;;0.70;0.70;;;8.80;99.90;;;;;;5052208;28;20174;-61
2023/10/06 02:43:13;;;;;;;1.02;0.98;;;8.80;99.90;;;;;;5052019;28;20671;-61
2023/10/06 02:45:40;;;;;;;3.20;0.80;;;8.80;99.90;;;;;;5051991;28;20209;-61
2023/10/06 02:48:17;;;;;;;2.00;0.63;;;8.80;99.90;;;;;;5051848;28;20254;-61
2023/10/06 02:50:45;;;;;;;2.45;0.98;;;8.80;99.90;;;;;;5052051;28;20197;-62
2023/10/06 02:53:13;;;;;;;2.55;1.20;;;8.70;99.90;;;;;;5051924;28;20585;-61
2023/10/06 02:55:43;;;;;;;1.50;1.50;;;8.70;99.90;;;;;;5052119;28;20180;-61
2023/10/06 02:58:10;;;;;;;1.27;1.25;;;8.60;99.90;;;;;;5051950;28;20198;-61
2023/10/06 03:00:36;;;;;;;0.60;0.60;;;8.60;99.90;;;;;;5051998;28;20236;-61
2023/10/06 03:03:18;;;;;;;0.60;0.60;;;8.60;99.90;;;;;;5051927;28;20174;-61
2023/10/06 03:05:51;;;;;;;4.40;1.92;;;8.60;99.90;;;;;;5051664;28;20400;-61
2023/10/06 03:08:20;;;;;;;2.10;1.92;;;8.70;99.90;;;;;;5051531;28;20196;-61
2023/10/06 03:10:48;;;;;;;0.90;0.90;;;8.70;99.90;;;;;;5051572;28;20184;-61
2023/10/06 03:13:31;;;;;;;0.68;0.68;;;8.70;99.90;;;;;;5051759;28;20239;-61
2023/10/06 03:15:59;;;;;;;1.45;1.35;;;8.80;99.90;;;;;;5051665;28;20169;-61
2023/10/06 03:18:25;;;;;;;1.40;0.85;;;8.90;99.90;;;;;;5051473;28;20247;-61
2023/10/06 03:20:57;;;;;;;1.42;1.02;;;8.80;99.90;;;;;;5051493;28;20162;-61
2023/10/06 03:23:37;;;;;;;1.63;1.52;;;8.80;99.90;;;;;;5050681;28;20170;-61
2023/10/06 03:26:04;;;;;;;1.02;0.85;;;8.70;99.90;;;;;;5051382;28;20158;-61
2023/10/06 03:28:36;;;;;;;0.85;0.85;;;8.80;99.90;;;;;;5051368;28;20237;-61
2023/10/06 03:33:47;;;;;;;1.75;0.85;;;8.90;99.90;;;;;;5051621;28;20204;-61
2023/10/06 03:36:15;;;;;;;1.38;1.25;;;8.80;99.90;;;;;;5051202;28;20200;-61
2023/10/06 03:38:51;;;;;;;1.55;1.45;;;8.70;99.90;;;;;;5051208;28;20212;-61
2023/10/06 03:41:24;;;;;;;6.80;1.45;;;8.70;99.90;;;;;;5051479;28;20227;-61
2023/10/06 03:43:51;;;;;;;0.82;0.70;;;8.70;99.90;;;;;;5051305;28;20542;-61
2023/10/06 03:46:19;;;;;;;3.00;2.78;;;8.70;99.90;;;;;;5051081;28;20205;-61
2023/10/06 03:48:48;;;;;;;0.50;0.50;;;8.70;99.90;;;;;;5051333;28;20766;-61
2023/10/06 03:51:20;;;;;;;0.60;0.60;;;8.70;99.90;;;;;;5051309;28;20578;-60
2023/10/06 03:53:48;;;;;;;1.13;1.02;;;8.80;99.90;;;;;;5051384;28;20659;-61
2023/10/06 03:56:17;;;;;;;1.52;0.88;;;8.80;99.90;;;;;;5050831;28;20182;-60
2023/10/06 03:58:45;;;;;;;0.73;0.73;;;8.80;99.90;;;;;;5051148;28;20206;-61
2023/10/06 04:01:17;;;;;;;0.63;0.60;;;8.70;99.90;;;;;;5033396;28;20166;-61
2023/10/06 04:03:43;;;;;;;3.22;0.90;;;8.70;99.90;;;;;;5051240;28;20304;-60
2023/10/06 04:06:12;;;;;;;2.30;2.10;;;8.70;99.90;;;;;;5050943;28;20528;-61
2023/10/06 04:08:40;;;;;;;1.25;1.05;;;8.80;99.90;;;;;;5050977;28;20228;-60
2023/10/06 04:11:05;;;;;;;1.35;1.33;;;8.90;99.90;;;;;;5051255;28;20169;-61
2023/10/06 04:13:31;;;;;;;0.97;0.67;;;8.90;99.90;;;;;;5051252;28;20253;-61
2023/10/06 04:15:58;;;;;;;7.33;0.97;;;8.90;99.90;;;;;;5051155;28;20174;-61
2023/10/06 04:18:24;;;;;;;1.05;0.50;;;8.80;99.90;;;;;;5051311;28;20192;-60
2023/10/06 04:20:54;;;;;;;0.50;0.50;;;8.80;99.90;;;;;;5051205;28;20175;-61
2023/10/06 04:23:23;;;;;;;1.25;1.15;;;8.80;99.90;;;;;;5050901;28;20711;-62
2023/10/06 04:25:54;;;;;;;0.50;0.50;;;8.80;99.90;;;;;;5050837;28;20174;-61
2023/10/06 04:28:25;;;;;;;1.30;1.13;;;8.70;99.90;;;;;;5050714;28;20240;-60
2023/10/06 04:30:51;;;;;;;2.42;0.77;;;8.70;99.90;;;;;;5050939;28;20174;-61
2023/10/06 04:33:18;;;;;;;1.50;1.33;;;8.60;99.90;;;;;;5051492;28;20596;-60
2023/10/06 04:38:31;;;;;;;5.30;0.70;;;8.60;99.90;;;;;;5054708;28;20206;-61
2023/10/06 04:40:57;;;;;;;1.95;1.85;;;8.60;99.90;;;;;;5054630;28;20169;-61
2023/10/06 04:43:23;;;;;;;2.40;1.17;;;8.60;99.90;;;;;;5054525;28;20257;-61
2023/10/06 04:45:50;;;;;;;3.42;3.22;;;8.60;99.90;;;;;;5054356;28;20634;-61
2023/10/06 04:48:18;;;;;;;1.17;1.08;;;8.60;99.90;;;;;;5053932;28;20287;-61
2023/10/06 04:50:45;;;;;;;0.55;0.55;;;8.70;99.90;;;;;;5054543;28;20244;-61
2023/10/06 04:53:11;;;;;;;2.13;1.88;;;8.70;99.90;;;;;;5054497;28;20216;-61
2023/10/06 04:55:38;;;;;;;0.95;0.88;;;8.70;99.90;;;;;;5054319;28;20197;-60
2023/10/06 04:58:05;;;;;;;0.50;0.50;;;8.80;99.90;;;;;;5054228;28;20328;-61
2023/10/06 05:00:33;;;;;;;1.92;1.02;;;8.80;99.90;;;;;;5054021;28;20205;-61
2023/10/06 05:02:59;;;;;;;2.13;1.65;;;8.90;99.90;;;;;;5054256;28;20182;-61
2023/10/06 05:05:26;;;;;;;4.40;1.15;;;8.80;99.90;;;;;;5053911;28;20177;-60
2023/10/06 05:07:53;;;;;;;0.85;0.85;;;8.70;99.90;;;;;;5053724;28;20175;-61
2023/10/06 05:10:25;;;;;;;1.70;1.00;;;8.60;99.90;;;;;;5054023;28;20224;-61
2023/10/06 05:12:54;;;;;;;3.67;2.25;;;8.50;99.90;;;;;;5053984;28;20234;-61
2023/10/06 05:15:23;;;;;;;2.67;1.50;;;8.50;99.90;;;;;;5053720;28;20232;-60
2023/10/06 05:17:56;;;;;;;2.30;1.50;;;8.50;99.90;;;;;;5053314;28;20181;-61
2023/10/06 05:20:23;;;;;;;2.25;1.75;;;8.50;99.90;;;;;;5053715;28;20211;-61
2023/10/06 05:22:50;;;;;;;2.47;1.52;;;8.50;99.90;;;;;;5044754;28;20185;-60
2023/10/06 05:25:19;;;;;;;2.65;1.08;;;8.50;99.90;;;;;;5043528;28;20181;-60
2023/10/06 05:27:46;;;;;;;1.77;1.00;;;8.60;99.90;;;;;;5043660;28;20661;-60
2023/10/06 05:30:17;;;;;;;2.50;2.40;;;8.60;99.90;;;;;;5038574;28;20643;-61
2023/10/06 05:32:43;;;;;;;1.45;0.98;;;8.60;99.90;;;;;;5033546;28;20201;-61
2023/10/06 05:35:14;;;;;;;2.00;1.10;;;8.60;99.90;;;;;;5033173;28;20264;-61
2023/10/06 05:37:44;;;;;;;3.00;1.23;;;8.70;99.90;;;;;;5033478;28;20424;-60
2023/10/06 05:40:16;;;;;;;1.02;1.02;;;8.60;99.90;;;;;;5033983;28;20285;-61
2023/10/06 05:42:48;;;;;;;1.40;1.27;;;8.50;99.90;;;;;;5033688;28;20643;-61
2023/10/06 05:45:15;;;;;;;1.17;1.02;;;8.50;99.90;;;;;;5032695;28;20186;-61
2023/10/06 05:47:50;;;;;;;1.65;1.55;;;8.60;99.90;;;;;;5033205;28;20204;-61
2023/10/06 05:50:27;;;;;;;4.00;1.48;;;8.70;99.90;;;;;;5033442;28;20188;-61
2023/10/06 05:53:04;;;;;;;0.45;0.45;;;8.60;99.90;;;;;;5033161;28;20220;-61
2023/10/06 05:55:30;;;;;;;0.80;0.63;;;8.60;99.90;;;;;;5033055;28;20185;-61
2023/10/06 05:58:00;;;;;;;2.53;1.40;;;8.70;99.90;;;;;;5032911;28;20687;-61
2023/10/06 06:00:30;;;;;;;8.52;4.80;;;8.80;99.90;;;;;;5032995;28;20233;-61
2023/10/06 06:03:09;;;;;;;2.25;1.52;;;8.80;99.90;;;;;;5032973;28;20178;-60
2023/10/06 06:05:37;;;;;;;0.70;0.70;;;8.80;99.90;;;;;;5033125;28;20174;-62
2023/10/06 06:08:03;;;;;;;0.80;0.80;;;8.90;99.90;;;;;;5032601;28;20236;-61
2023/10/06 06:10:29;;;;;;;3.40;1.30;;;8.90;99.90;;;;;;5032798;28;20186;-61
2023/10/06 06:13:00;;;;;;;2.33;1.67;;;8.90;99.90;;;;;;5032760;28;20174;-61
2023/10/06 06:15:26;;;;;;;2.25;1.40;;;8.90;99.90;;;;;;5032598;28;20542;-61
2023/10/06 06:17:58;;;;;;;2.25;0.80;;;8.90;99.90;;;;;;5032341;28;20213;-61
2023/10/06 06:20:24;;;;;;;0.70;0.70;;;8.90;99.90;;;;;;5032741;28;20206;-61
2023/10/06 06:23:02;;;;;;;1.13;1.02;;;8.90;99.90;;;;;;5032627;28;20178;-61
2023/10/06 06:25:30;;;;;;;0.75;0.75;;;9.00;99.90;;;;;;5032252;28;20194;-61
2023/10/06 06:27:59;;;;;;;0.98;0.88;;;9.00;99.90;;;;;;5041758;28;20178;-61
2023/10/06 06:30:27;;;;;;;1.48;1.15;;;9.20;99.90;;;;;;5033379;28;20193;-61
2023/10/06 06:32:54;;;;;;;2.45;0.70;;;9.40;99.90;;;;;;5052417;28;20575;-61
2023/10/06 06:35:21;;;;;;;1.45;1.35;;;9.50;99.90;;;;;;5052380;28;20235;-61
2023/10/06 06:37:59;;;;;;;0.73;0.60;;;9.50;99.90;;;;;;5052136;28;20181;-61
2023/10/06 06:40:26;;;;;;;1.33;0.60;;;9.60;99.90;;;;;;5052763;28;20675;-61
2023/10/06 06:42:52;;;;;;;2.85;2.33;;;9.70;99.90;;;;;;5052013;28;20183;-60
2023/10/06 06:45:24;;;;;;;5.05;1.52;;;9.80;99.90;;;;;;5045638;28;20608;-61
2023/10/06 06:47:50;;;;;;;1.17;1.05;;;10.00;99.90;;;;;;5030622;28;20182;-61
2023/10/06 06:50:17;;;;;;;2.40;2.20;;;10.10;99.90;;;;;;5031793;28;20648;-61
2023/10/06 06:52:47;;;;;;;1.57;1.47;;;10.10;99.90;;;;;;5032049;28;20175;-61
2023/10/06 06:55:13;;;;;;;4.20;1.67;;;10.60;99.90;;;;;;5031828;28;20501;-61
2023/10/06 06:57:46;;;;;;;1.70;1.60;;;11.70;99.90;;;;;;5031563;28;20536;-61
2023/10/06 07:00:17;;;;;;;0.97;0.97;;;13.20;99.90;;;;;;5031763;28;20511;-61
2023/10/06 07:02:47;;;;;;;1.70;1.10;;;15.00;99.90;;;;;;5031754;28;20417;-62
2023/10/06 07:05:15;;;;;;;5.60;2.03;;;16.80;98.80;;;;;;5031787;28;20434;-62
2023/10/06 07:07:43;;;;;;;2.40;1.70;;;18.40;94.40;;;;;;5031343;28;20470;-63
2023/10/06 07:10:19;;;;;;;2.60;2.07;;;19.70;90.70;;;;;;5031653;28;20424;-62
2023/10/06 07:12:47;;;;;;;1.90;1.70;;;20.80;85.80;;;;;;5031793;28;20416;-62
2023/10/06 07:15:17;;;;;;;1.93;1.73;;;21.30;77.10;;;;;;5031646;28;20473;-62
2023/10/06 07:17:47;;;;;;;3.97;1.93;;;21.20;77.50;;;;;;5031073;28;20412;-61
2023/10/06 07:20:17;;;;;;;4.60;2.50;;;21.10;76.60;;;;;;5031411;28;20479;-62
2023/10/06 07:22:50;;;;;;;1.60;1.50;;;20.90;75.80;;;;;;5031759;28;20417;-63
2023/10/06 07:25:16;;;;;;;3.00;2.80;;;20.70;75.80;;;;;;5031506;28;20415;-62
2023/10/06 07:27:46;;;;;;;1.87;1.13;;;20.60;75.40;;;;;;5030973;28;20412;-62
2023/10/06 07:30:16;;;;;;;7.13;2.00;;;20.80;74.30;;;;;;5031529;28;20887;-62
2023/10/06 07:32:46;;;;;;;2.07;1.87;;;21.60;73.10;;;;;;5031344;28;20500;-63
2023/10/06 07:35:17;;;;;;;2.03;1.60;;;22.90;71.30;;;;;;5031370;28;20435;-62
2023/10/06 07:37:45;;;;;;;3.00;2.13;;;24.10;67.70;;;;;;5030949;28;20418;-62
2023/10/06 07:40:15;;;;;;;2.47;1.70;;;25.00;63.60;;;;;;5031272;28;20461;-62
2023/10/06 07:42:45;;;;;;;1.80;1.40;;;25.40;59.80;;;;;;5031330;28;20425;-63
2023/10/06 07:45:12;;;;;;;2.50;2.30;;;25.70;58.50;;;;;;5031155;28;20895;-62
2023/10/06 07:47:39;;;;;;;3.70;1.70;;;25.90;56.80;;;;;;5042777;28;20417;-63
2023/10/06 07:50:05;;;;;;;2.77;2.03;;;25.60;56.70;;;;;;5051324;28;20432;-62
2023/10/06 07:52:32;;;;;;;5.77;2.43;;;25.20;57.40;;;;;;5051127;28;20447;-62
2023/10/06 07:54:59;;;;;;;4.77;2.47;;;25.10;58.20;;;;;;5051152;28;20421;-64
2023/10/06 07:57:25;;;;;;;2.10;1.67;;;25.60;57.30;;;;;;5029645;28;20726;-64
2023/10/06 07:59:51;;;;;;;2.30;1.90;;;26.40;56.50;;;;;;5041945;28;20519;-65
2023/10/06 08:02:16;;;;;;;1.70;1.40;;;27.10;55.00;;;;;;5040953;28;20417;-63
2023/10/06 08:04:42;;;;;;;3.20;1.90;;;27.40;53.40;;;;;;5039847;28;20401;-65
2023/10/06 08:07:08;;;;;;;2.53;2.33;;;27.40;53.20;;;;;;5039725;28;20174;-64
2023/10/06 08:09:33;;;;;;;2.87;2.37;;;27.50;53.30;;;;;;5050126;28;20225;-62
2023/10/06 08:11:59;;;;;;;5.57;2.60;;;27.70;52.60;;;;;;5054277;28;20170;-63
2023/10/06 08:14:24;;;;;;;3.87;2.00;;;28.30;52.50;;;;;;5053972;28;20177;-63
2023/10/06 08:16:50;;;;;;;4.07;2.50;;;29.30;51.00;;;;;;5053376;28;20208;-63
2023/10/06 08:19:16;;;;;;;2.80;2.53;;;30.50;49.00;;;;;;5050186;28;20271;-61
2023/10/06 08:21:42;;;;;;;2.40;1.73;;;31.70;46.40;;;;;;5054409;28;20483;-61
2023/10/06 08:24:08;;;;;;;1.80;1.70;;;32.70;44.50;;;;;;5053752;28;20412;-61
2023/10/06 08:26:36;;;;;;;2.10;1.90;;;33.40;42.10;;;;;;5053174;28;20309;-62
2023/10/06 08:29:04;;;;;;;2.30;1.93;;;33.70;41.00;;;;;;5070605;23;20501;-61
2023/10/06 08:31:30;;;;;;;3.93;2.00;;;33.70;41.00;;;;;;5094564;28;20494;-63
2023/10/06 08:33:58;;;;;;;4.67;2.10;;;33.90;40.30;;;;;;5094305;28;21059;-62
2023/10/06 08:36:24;;;;;;;3.13;1.67;;;34.00;40.10;;;;;;5094094;28;20452;-62
2023/10/06 08:38:51;;;;;;;2.60;2.10;;;34.10;39.50;;;;;;5094329;28;20441;-62
2023/10/06 08:41:31;;;;;;;3.00;1.90;;;34.10;38.40;;;;;;5094468;28;20176;-62
2023/10/06 08:44:01;;;;;;;3.33;1.80;;;33.80;38.60;;;;;;5094513;28;20422;-62
2023/10/06 08:46:28;;;;;;;3.33;1.90;;;33.10;38.80;;;;;;5094316;28;20490;-62
2023/10/06 08:48:56;;;;;;;3.20;1.80;;;32.40;38.90;;;;;;5094307;28;20504;-62
2023/10/06 08:51:25;;;;;;;2.77;2.47;;;32.00;39.00;;;;;;5094282;28;20403;-62
2023/10/06 08:53:55;;;;;;;3.53;1.87;;;31.50;40.00;;;;;;5094193;28;20414;-61
2023/10/06 08:56:21;;;;;;;4.57;1.40;;;31.00;41.40;;;;;;5094121;28;20414;-62
2023/10/06 08:58:47;;;;;;;2.20;1.20;;;30.40;42.40;;;;;;5094062;28;20446;-62
2023/10/06 09:01:13;;;;;;;3.10;2.07;;;30.20;44.10;;;;;;5093757;28;20428;-62
2023/10/06 09:03:39;;;;;;;2.77;1.97;;;30.50;45.00;;;;;;5093810;28;20161;-61
2023/10/06 09:06:06;;;;;;;1.73;1.63;;;31.20;43.60;;;;;;5093572;28;20399;-62
2023/10/06 09:08:50;;;;;;;2.33;1.70;;;31.70;41.60;;;;;;5093679;28;20690;-62
2023/10/06 09:11:15;;;;;;;2.07;1.87;;;31.80;41.60;;;;;;5093495;28;20532;-62
2023/10/06 09:13:41;;;;;;;2.03;1.77;;;32.00;41.00;;;;;;5093408;28;20822;-61
2023/10/06 09:16:07;;;;;;;2.80;1.63;;;32.60;39.70;;;;;;5093053;28;20229;-62
2023/10/06 09:18:39;;;;;;;2.30;1.50;;;33.40;38.80;;;;;;5092533;28;20524;-62
2023/10/06 09:21:22;;;;;;;2.20;2.00;;;33.90;38.30;;;;;;5091916;28;20413;-63
2023/10/06 09:23:49;;;;;;;4.07;2.30;;;34.00;38.60;;;;;;5093329;28;20485;-62
2023/10/06 09:26:26;;;;;;;3.30;1.90;;;33.70;37.40;;;;;;5092708;28;20938;-62
2023/10/06 09:28:55;;;;;;;3.50;2.30;;;32.90;38.50;;;;;;5092681;28;20449;-62
2023/10/06 09:31:44;;;;;;;2.83;1.73;;;32.60;39.40;;;;;;5093485;28;20468;-62
2023/10/06 09:34:11;;;;;;;2.00;1.80;;;32.80;39.50;;;;;;5080464;28;20947;-62
2023/10/06 09:36:43;;;;;;;5.23;2.50;;;33.00;39.20;;;;;;5093599;28;20939;-62
2023/10/06 09:39:14;;;;;;;3.43;2.63;;;33.20;39.70;;;;;;5093242;28;20450;-61
2023/10/06 09:41:40;;;;;;;4.47;1.73;;;32.90;40.20;;;;;;5093384;28;20985;-62
2023/10/06 09:44:11;;;;;;;2.00;1.50;;;32.80;41.30;;;;;;5093495;28;20785;-62
2023/10/06 09:46:43;;;;;;;4.20;2.90;;;33.30;40.80;;;;;;5093115;28;20405;-62
2023/10/06 09:49:12;;;;;;;2.13;1.77;;;33.60;40.60;;;;;;5093020;28;20861;-62
2023/10/06 09:51:38;;;;;;;3.90;1.53;;;33.60;35.80;;;;;;5093167;28;20521;-61
2023/10/06 09:54:09;;;;;;;2.20;1.30;;;32.50;34.20;;;;;;5093083;28;20534;-62
2023/10/06 09:56:35;;;;;;;1.87;1.17;;;31.70;32.80;;;;;;5092635;28;20833;-62
2023/10/06 09:59:01;;;;;;;1.57;1.30;;;31.10;33.90;;;;;;5092589;28;20538;-62
2023/10/06 10:01:31;;;;;;;2.83;1.27;;;30.60;36.50;;;;;;5092958;28;20543;-61
2023/10/06 10:03:57;;;;;;;2.00;1.30;;;30.40;37.70;;;;;;5092781;28;20839;-62
2023/10/06 10:06:23;;;;;;;1.40;1.30;;;30.20;40.30;;;;;;5092438;28;20400;-62
2023/10/06 10:08:51;;;;;;;1.90;1.37;;;29.90;40.50;;;;;;5092677;28;20210;-61
2023/10/06 10:11:31;;;;;;;1.33;1.23;;;29.90;40.30;;;;;;5092550;28;20911;-62
2023/10/06 10:14:26;;;;;;;2.83;1.90;;;30.00;40.20;;;;;;5092752;28;20404;-62
2023/10/06 10:16:56;;;;;;;3.33;1.97;;;30.30;41.20;;;;;;5092303;28;20420;-62
2023/10/06 10:19:23;;;;;;;1.67;1.10;;;30.50;39.50;;;;;;5092745;28;20458;-62
2023/10/06 10:21:49;;;;;;;2.53;1.40;;;30.60;41.40;;;;;;5092772;28;20410;-61
2023/10/06 10:24:19;;;;;;;1.43;1.33;;;30.40;37.10;;;;;;5092678;28;20405;-62
2023/10/06 10:26:52;;;;;;;3.30;1.93;;;30.10;38.70;;;;;;5092202;28;20490;-62
2023/10/06 10:29:18;;;;;;;1.37;1.23;;;29.80;38.60;;;;;;5092169;28;20446;-61
2023/10/06 10:31:56;;;;;;;3.13;2.67;;;29.50;38.90;;;;;;5091984;28;20552;-62
2023/10/06 10:34:23;;;;;;;4.03;2.50;;;29.30;38.80;;;;;;5092418;28;20197;-62
2023/10/06 10:36:54;;;;;;;2.87;1.70;;;28.80;37.40;;;;;;5091670;28;21005;-62
2023/10/06 10:39:22;;;;;;;2.00;1.50;;;28.20;38.50;;;;;;5091838;28;20814;-61
2023/10/06 10:41:47;;;;;;;0.80;0.80;;;27.60;38.50;;;;;;5092114;28;20407;-62
2023/10/06 10:44:17;;;;;;;1.57;1.47;;;26.80;37.50;;;;;;5091913;28;20761;-62
2023/10/06 10:46:53;;;;;;;1.80;1.70;;;26.10;38.40;;;;;;5091873;28;20203;-61
2023/10/06 10:49:22;;;;;;;1.63;1.00;;;25.70;40.40;;;;;;5074181;28;21008;-61
2023/10/06 10:52:09;;;;;;;1.57;1.30;;;25.50;40.40;;;;;;5092501;28;20468;-61
2023/10/06 10:54:39;;;;;;;2.27;1.83;;;25.50;41.40;;;;;;5091945;28;20439;-61
2023/10/06 10:57:21;;;;;;;2.20;1.50;;;25.50;41.30;;;;;;5085154;28;20415;-61
2023/10/06 11:03:01;;;;;;;5.57;1.27;;;25.20;41.80;;;;;;5076622;28;20423;-61
2023/10/06 11:05:27;;;;;;;2.10;1.17;;;24.90;41.50;;;;;;5075490;28;20389;-61
2023/10/06 11:08:05;;;;;;;2.23;1.37;;;24.60;42.70;;;;;;5069454;28;20383;-60
2023/10/06 11:10:32;;;;;;;1.20;1.20;;;24.40;42.60;;;;;;5070648;28;20415;-61
2023/10/06 11:13:21;;;;;;;1.20;1.00;;;24.30;43.20;;;;;;5071313;28;20895;-61
2023/10/06 11:15:49;;;;;;;1.47;1.37;;;24.10;44.90;;;;;;5053438;28;20800;-61
2023/10/06 11:18:17;;;;;;;1.77;1.30;;;23.80;43.80;;;;;;5071066;28;20371;-60
2023/10/06 11:20:44;;;;;;;2.30;1.13;;;23.50;43.60;;;;;;5071444;28;20512;-62
2023/10/06 11:23:10;;;;;;;1.23;1.00;;;23.30;42.70;;;;;;5071433;28;20411;-61
2023/10/06 11:25:45;;;;;;;4.57;1.13;;;23.30;42.30;;;;;;5071176;28;20416;-60
2023/10/06 11:28:12;;;;;;;1.73;1.30;;;23.20;44.70;;;;;;5070935;28;20188;-61
2023/10/06 11:30:40;;;;;;;1.50;1.23;;;23.30;43.80;;;;;;5071648;28;20473;-61
2023/10/06 11:33:08;;;;;;;1.23;0.97;;;23.40;45.30;;;;;;5071548;28;20386;-61
2023/10/06 11:35:34;;;;;;;4.50;2.27;;;23.50;45.80;;;;;;5071336;28;20402;-61
2023/10/06 11:38:04;;;;;;;2.47;1.97;;;23.60;47.10;;;;;;5070907;28;20462;-61
2023/10/06 11:40:31;;;;;;;1.87;1.30;;;23.50;44.10;;;;;;5071128;28;20503;-61
2023/10/06 11:43:12;;;;;;;1.93;1.33;;;23.50;48.50;;;;;;5071355;28;20901;-61
2023/10/06 11:45:38;;;;;;;1.77;1.47;;;23.60;45.50;;;;;;5075255;28;20752;-61
2023/10/06 11:48:05;;;;;;;1.30;1.20;;;23.50;46.50;;;;;;5074964;28;20378;-61
2023/10/06 11:50:32;;;;;;;0.90;0.90;;;23.30;47.10;;;;;;5078359;28;20405;-61
2023/10/06 11:52:59;;;;;;;1.00;0.90;;;23.20;51.20;;;;;;5088800;28;20787;-61
2023/10/06 11:55:33;;;;;;;1.40;1.30;;;23.10;51.70;;;;;;5095438;28;20377;-61
2023/10/06 11:58:00;;;;;;;1.93;1.23;;;23.00;50.80;;;;;;5095036;28;20920;-61
2023/10/06 12:00:45;;;;;;;1.30;1.20;;;22.80;50.20;;;;;;5095128;28;21017;-61
2023/10/06 12:03:11;;;;;;;1.60;1.50;;;22.80;47.70;;;;;;5095274;28;20402;-61
2023/10/06 12:05:41;;;;;;;2.20;1.80;;;22.80;50.10;;;;;;5095331;28;20553;-61
2023/10/06 12:08:08;;;;;;;1.10;0.97;;;22.70;51.60;;;;;;5094987;28;20373;-61
2023/10/06 12:10:46;;;;;;;1.60;1.30;;;22.60;54.00;;;;;;5095401;28;20917;-61
2023/10/06 12:13:12;;;;;;;1.07;0.90;;;22.40;51.20;;;;;;5095187;28;20402;-61
2023/10/06 12:15:38;;;;;;;1.53;1.43;;;22.30;52.00;;;;;;5094843;28;20404;-61
2023/10/06 12:18:04;;;;;;;2.10;1.40;;;22.30;51.60;;;;;;5094991;28;20206;-61
2023/10/06 12:20:30;;;;;;;1.10;1.00;;;22.00;52.50;;;;;;5094791;28;20638;-61
2023/10/06 12:22:55;;;;;;;2.20;1.47;;;21.90;55.70;;;;;;5094889;28;20410;-61
2023/10/06 12:25:25;;;;;;;1.50;1.20;;;21.80;54.50;;;;;;5094870;28;20287;-61
2023/10/06 12:27:51;;;;;;;1.80;1.70;;;21.70;58.20;;;;;;5094474;28;20199;-61
2023/10/06 12:30:17;;;;;;;1.63;1.47;;;21.50;55.00;;;;;;5094536;28;20442;-61
2023/10/06 12:32:45;;;;;;;2.23;2.10;;;21.40;56.30;;;;;;5094595;28;20259;-61
2023/10/06 12:35:12;;;;;;;1.30;1.20;;;21.50;53.40;;;;;;5094603;28;20418;-61
2023/10/06 12:37:41;;;;;;;1.70;1.57;;;21.60;56.10;;;;;;5094092;28;20418;-61
2023/10/06 12:40:09;;;;;;;2.67;1.93;;;21.60;57.50;;;;;;5094224;28;20839;-61
2023/10/06 12:42:36;;;;;;;1.50;1.30;;;21.60;54.50;;;;;;5094446;28;20402;-61
2023/10/06 12:45:02;;;;;;;2.03;1.20;;;21.60;53.90;;;;;;5094418;28;20465;-61
2023/10/06 12:47:28;;;;;;;4.10;1.60;;;21.60;53.30;;;;;;5094063;28;20941;-61
2023/10/06 12:49:58;;;;;;;1.87;1.27;;;21.60;55.70;;;;;;5094255;28;20429;-61
2023/10/06 12:52:24;;;;;;;2.60;2.03;;;21.50;58.90;;;;;;5094238;28;20442;-60
2023/10/06 12:54:49;;;;;;;2.03;1.90;;;21.40;55.70;;;;;;5093850;28;20378;-61
2023/10/06 12:57:15;;;;;;;1.57;1.27;;;21.40;59.10;;;;;;5093638;28;20637;-61
2023/10/06 12:59:41;;;;;;;2.87;1.23;;;21.20;60.70;;;;;;5094263;28;20218;-61
2023/10/06 13:02:06;;;;;;;2.30;1.50;;;21.20;61.00;;;;;;5092657;28;20653;-61
2023/10/06 13:04:32;;;;;;;3.47;1.60;;;21.00;57.20;;;;;;5093838;28;20194;-61
2023/10/06 13:07:00;;;;;;;1.17;1.00;;;21.00;57.50;;;;;;5093747;28;20249;-61
2023/10/06 13:09:27;;;;;;;1.60;1.33;;;20.90;60.70;;;;;;5093972;28;20236;-60
2023/10/06 13:11:53;;;;;;;1.20;1.10;;;20.90;62.70;;;;;;5093829;28;20417;-61
2023/10/06 13:14:18;;;;;;;4.23;2.00;;;20.70;66.10;;;;;;5094000;28;20921;-61
2023/10/06 13:16:45;;;;;;;2.60;1.40;;;20.60;66.10;;;;;;5093421;28;20598;-61
2023/10/06 13:19:10;;;;;;;3.40;1.60;;;20.60;60.80;;;;;;5093549;28;20194;-61
2023/10/06 13:21:36;;;;;;;4.07;1.90;;;20.60;64.10;;;;;;5092993;28;20417;-60
2023/10/06 13:24:05;;;;;;;1.47;1.37;;;20.50;64.30;;;;;;5092996;28;20180;-62